Time;durP1;ratioP1;P1;durP2;ratioP2;P2;SDS_P1;SDS_P2;PMS_P1;PMS_P2;Temp;Humidity;BMP_temperature;BMP_pressure;BME280_temperature;BME280_humidity;BME280_pressure;Samples;Min_cycle;Max_cycle;Signal;HPM_P1;HPM_P2
2023/01/01 00:02:55;;;;;;;;;;;20.60;40.20;;;;;;8330395;28;19913;-45
2023/01/01 00:06:55;;;;;;;;;;;20.60;40.10;;;;;;8330099;28;19917;-46
2023/01/01 00:10:59;;;;;;;;;;;20.50;40.10;;;;;;8329498;28;20398;-46
2023/01/01 00:14:59;;;;;;;;;;;20.60;40.10;;;;;;8329986;28;19917;-46
2023/01/01 00:18:59;;;;;;;;;;;20.60;40.10;;;;;;8330141;28;20333;-45
2023/01/01 00:23:00;;;;;;;;;;;20.60;40.10;;;;;;8329704;28;19913;-46
2023/01/01 00:27:00;;;;;;;;;;;20.50;40.10;;;;;;8330079;28;19924;-46
2023/01/01 00:31:05;;;;;;;;;;;20.50;40.10;;;;;;8329948;28;19925;-46
2023/01/01 00:35:06;;;;;;;;;;;20.50;40.10;;;;;;8329539;28;20375;-45
2023/01/01 00:39:06;;;;;;;;;;;20.50;40.10;;;;;;8328676;28;20005;-46
2023/01/01 00:43:06;;;;;;;;;;;20.40;40.10;;;;;;8336020;28;20389;-46
2023/01/01 00:47:07;;;;;;;;;;;20.40;40.20;;;;;;8335683;28;19943;-44
2023/01/01 00:51:08;;;;;;;;;;;20.40;40.70;;;;;;8335693;28;19925;-45
2023/01/01 00:55:08;;;;;;;;;;;20.40;40.10;;;;;;8335825;28;19917;-46
2023/01/01 00:59:09;;;;;;;;;;;20.40;40.10;;;;;;8335262;28;20408;-46
2023/01/01 01:03:09;;;;;;;;;;;20.40;40.10;;;;;;8336080;28;19959;-45
2023/01/01 01:07:10;;;;;;;;;;;20.30;40.10;;;;;;8335462;28;19980;-44
2023/01/01 01:11:15;;;;;;;;;;;20.30;40.10;;;;;;8334775;28;19925;-45
2023/01/01 01:15:15;;;;;;;;;;;20.30;40.10;;;;;;8335196;28;19928;-45
2023/01/01 01:19:18;;;;;;;;;;;20.30;40.10;;;;;;8335056;28;20398;-45
2023/01/01 01:23:19;;;;;;;;;;;20.30;40.10;;;;;;8334644;28;19913;-45
2023/01/01 01:27:19;;;;;;;;;;;20.20;40.10;;;;;;8334906;28;20131;-44
2023/01/01 01:31:21;;;;;;;;;;;20.30;40.20;;;;;;8334570;28;19929;-45
2023/01/01 01:35:21;;;;;;;;;;;20.20;40.10;;;;;;8334202;28;19918;-44
2023/01/01 01:39:22;;;;;;;;;;;20.20;40.10;;;;;;8334389;28;19972;-46
2023/01/01 01:43:24;;;;;;;;;;;20.20;40.10;;;;;;8334155;28;19922;-44
2023/01/01 01:47:30;;;;;;;;;;;20.20;40.10;;;;;;8334131;28;19951;-45
2023/01/01 01:51:37;;;;;;;;;;;20.20;40.10;;;;;;8332982;28;20378;-45
2023/01/01 01:55:39;;;;;;;;;;;20.20;40.10;;;;;;8333534;28;19924;-44
2023/01/01 01:59:42;;;;;;;;;;;20.20;40.10;;;;;;8333984;28;19925;-45
2023/01/01 02:03:48;;;;;;;;;;;20.20;40.10;;;;;;8334243;28;20511;-44
2023/01/01 02:07:49;;;;;;;;;;;20.10;40.00;;;;;;8331975;28;19924;-44
2023/01/01 02:11:50;;;;;;;;;;;20.10;40.10;;;;;;8333360;28;19939;-44
2023/01/01 02:15:53;;;;;;;;;;;20.10;40.10;;;;;;8333233;28;19917;-44
2023/01/01 02:19:59;;;;;;;;;;;20.10;40.10;;;;;;8333007;28;19983;-45
2023/01/01 02:24:18;;;;;;;;;;;20.10;40.10;;;;;;8333371;28;19917;-44
2023/01/01 02:28:37;;;;;;;;;;;20.10;40.10;;;;;;8332889;28;19925;-44
2023/01/01 02:32:44;;;;;;;;;;;20.10;40.10;;;;;;8332514;28;19944;-45
2023/01/01 02:36:48;;;;;;;;;;;20.00;40.00;;;;;;8332960;28;19917;-44
2023/01/01 02:40:51;;;;;;;;;;;20.00;40.00;;;;;;8332072;28;19921;-44
2023/01/01 02:44:53;;;;;;;;;;;20.00;40.00;;;;;;8332426;28;19931;-45
2023/01/01 02:48:53;;;;;;;;;;;20.00;40.10;;;;;;8332483;28;20042;-45
2023/01/01 02:53:00;;;;;;;;;;;20.00;40.00;;;;;;8315909;28;20407;-45
2023/01/01 02:57:04;;;;;;;;;;;20.00;40.20;;;;;;8319381;28;19917;-45
2023/01/01 03:01:10;;;;;;;;;;;20.00;40.20;;;;;;8332092;28;19913;-45
2023/01/01 03:05:19;;;;;;;;;;;20.00;40.20;;;;;;8331530;28;19917;-44
2023/01/01 03:09:20;;;;;;;;;;;19.90;40.10;;;;;;8332102;28;19991;-44
2023/01/01 03:13:32;;;;;;;;;;;19.90;40.10;;;;;;8331609;28;19970;-45
2023/01/01 03:17:49;;;;;;;;;;;19.90;40.10;;;;;;8331064;28;19968;-45
2023/01/01 03:21:53;;;;;;;;;;;19.90;40.00;;;;;;8331290;28;19913;-45
2023/01/01 03:25:56;;;;;;;;;;;19.90;40.10;;;;;;8330675;28;20297;-44
2023/01/01 03:29:59;;;;;;;;;;;19.90;40.00;;;;;;8331015;28;19921;-44
2023/01/01 03:34:02;;;;;;;;;;;19.90;40.10;;;;;;8331269;28;19924;-45
2023/01/01 03:38:12;;;;;;;;;;;19.90;40.10;;;;;;8330286;28;19917;-44
2023/01/01 03:42:15;;;;;;;;;;;19.90;40.10;;;;;;8331041;28;19921;-46
2023/01/01 03:46:18;;;;;;;;;;;19.90;40.20;;;;;;8329330;28;19913;-45
2023/01/01 03:50:20;;;;;;;;;;;19.80;40.10;;;;;;8330043;28;19940;-45
2023/01/01 03:54:27;;;;;;;;;;;19.80;40.00;;;;;;8331101;28;19921;-44
2023/01/01 03:58:47;;;;;;;;;;;19.80;40.10;;;;;;8329901;28;19917;-45
2023/01/01 04:02:53;;;;;;;;;;;19.80;40.10;;;;;;8329906;28;19917;-45
2023/01/01 04:06:54;;;;;;;;;;;19.80;40.10;;;;;;8330351;28;19917;-45
2023/01/01 04:10:55;;;;;;;;;;;19.80;40.10;;;;;;8329580;28;19957;-44
2023/01/01 04:14:56;;;;;;;;;;;19.80;40.20;;;;;;8332687;28;19913;-45
2023/01/01 04:18:56;;;;;;;;;;;19.70;40.20;;;;;;8340885;28;20366;-45
2023/01/01 04:22:57;;;;;;;;;;;19.70;40.20;;;;;;8340553;28;19917;-45
2023/01/01 04:26:58;;;;;;;;;;;19.80;40.30;;;;;;8340961;28;19925;-45
2023/01/01 04:31:01;;;;;;;;;;;19.80;40.20;;;;;;8340620;28;19968;-44
2023/01/01 04:35:02;;;;;;;;;;;19.90;40.20;;;;;;8340662;28;20401;-45
2023/01/01 04:39:02;;;;;;;;;;;19.90;40.10;;;;;;8340726;28;19917;-45
2023/01/01 04:43:03;;;;;;;;;;;19.90;40.00;;;;;;8340819;28;19924;-45
2023/01/01 04:47:03;;;;;;;;;;;20.00;40.00;;;;;;8340185;28;19921;-44
2023/01/01 04:51:04;;;;;;;;;;;20.00;40.00;;;;;;8339587;28;19925;-44
2023/01/01 04:55:04;;;;;;;;;;;20.00;40.00;;;;;;8340486;28;19924;-45
2023/01/01 04:59:05;;;;;;;;;;;20.00;39.90;;;;;;8339841;28;20481;-45
2023/01/01 05:03:05;;;;;;;;;;;20.10;39.90;;;;;;8340362;28;19963;-45
2023/01/01 05:07:06;;;;;;;;;;;20.10;39.90;;;;;;8339437;28;19928;-46
2023/01/01 05:11:10;;;;;;;;;;;20.10;39.90;;;;;;8338885;28;21317;-45
2023/01/01 05:15:10;;;;;;;;;;;20.20;39.90;;;;;;8340705;28;20370;-45
2023/01/01 05:19:10;;;;;;;;;;;20.20;39.80;;;;;;8340026;28;19917;-44
2023/01/01 05:23:11;;;;;;;;;;;20.20;39.80;;;;;;8339615;28;19940;-45
2023/01/01 05:27:11;;;;;;;;;;;20.20;39.80;;;;;;8336433;28;19972;-46
2023/01/01 05:31:16;;;;;;;;;;;20.20;39.70;;;;;;8334596;28;20310;-45
2023/01/01 05:35:16;;;;;;;;;;;20.30;39.60;;;;;;8334650;28;19913;-45
2023/01/01 05:39:17;;;;;;;;;;;20.30;39.70;;;;;;8334988;28;20000;-45
2023/01/01 05:43:17;;;;;;;;;;;20.30;39.70;;;;;;8334403;28;19913;-46
2023/01/01 05:47:20;;;;;;;;;;;20.40;39.70;;;;;;8333838;28;19948;-45
2023/01/01 05:51:21;;;;;;;;;;;20.40;39.70;;;;;;8334096;28;19925;-46
2023/01/01 05:55:22;;;;;;;;;;;20.40;39.60;;;;;;8333847;28;20016;-43
2023/01/01 05:59:22;;;;;;;;;;;20.40;39.70;;;;;;8333927;28;19917;-45
2023/01/01 06:03:23;;;;;;;;;;;20.40;39.60;;;;;;8333775;28;19921;-46
2023/01/01 06:07:23;;;;;;;;;;;20.40;39.60;;;;;;8333138;28;19944;-44
2023/01/01 06:11:24;;;;;;;;;;;20.50;39.60;;;;;;8333403;28;20365;-44
2023/01/01 06:15:24;;;;;;;;;;;20.50;39.60;;;;;;8333646;28;19939;-47
2023/01/01 06:19:25;;;;;;;;;;;20.50;39.60;;;;;;8332827;28;19928;-47
2023/01/01 06:23:25;;;;;;;;;;;20.50;39.60;;;;;;8332967;28;19917;-46
2023/01/01 06:27:26;;;;;;;;;;;20.50;39.60;;;;;;8333045;28;20305;-44
2023/01/01 06:31:27;;;;;;;;;;;20.50;39.60;;;;;;8332545;28;19925;-45
2023/01/01 06:35:27;;;;;;;;;;;20.50;39.50;;;;;;8333012;28;19920;-46
2023/01/01 06:39:28;;;;;;;;;;;20.50;39.50;;;;;;8332409;28;19917;-46
2023/01/01 06:43:30;;;;;;;;;;;20.50;39.60;;;;;;8332073;28;19921;-44
2023/01/01 06:47:32;;;;;;;;;;;20.50;39.50;;;;;;8332440;28;19971;-45
2023/01/01 06:51:36;;;;;;;;;;;20.50;39.50;;;;;;8332336;28;19932;-46
2023/01/01 06:55:37;;;;;;;;;;;20.50;39.40;;;;;;8331788;28;20015;-46
2023/01/01 06:59:37;;;;;;;;;;;20.50;39.40;;;;;;8332316;28;19917;-46
2023/01/01 07:03:38;;;;;;;;;;;20.50;39.50;;;;;;8331825;28;19923;-46
2023/01/01 07:07:38;;;;;;;;;;;20.50;39.40;;;;;;8331361;28;19972;-46
2023/01/01 07:11:39;;;;;;;;;;;20.50;39.40;;;;;;8331802;28;20306;-46
2023/01/01 07:15:39;;;;;;;;;;;20.50;39.40;;;;;;8331850;28;20436;-44
2023/01/01 07:19:40;;;;;;;;;;;20.50;39.40;;;;;;8330994;28;20389;-44
2023/01/01 07:23:40;;;;;;;;;;;20.50;39.40;;;;;;8331310;28;19952;-45
2023/01/01 07:27:40;;;;;;;;;;;20.50;39.30;;;;;;8331217;28;19924;-45
2023/01/01 07:31:41;;;;;;;;;;;20.50;39.30;;;;;;8330548;28;20091;-45
2023/01/01 07:35:43;;;;;;;;;;;20.50;39.30;;;;;;8331118;28;20279;-43
2023/01/01 07:39:44;;;;;;;;;;;20.60;39.30;;;;;;8331033;28;20386;-45
2023/01/01 07:43:44;;;;;;;;;;;20.60;39.30;;;;;;8330138;28;19945;-45
2023/01/01 07:47:49;;;;;;;;;;;20.60;39.30;;;;;;8330771;28;19917;-45
2023/01/01 07:51:49;;;;;;;;;;;20.60;39.30;;;;;;8329790;28;19935;-43
2023/01/01 07:55:50;;;;;;;;;;;20.60;39.20;;;;;;8330267;28;19921;-45
2023/01/01 07:59:50;;;;;;;;;;;20.60;39.20;;;;;;8330670;28;20471;-44
2023/01/01 08:03:51;;;;;;;;;;;20.60;39.20;;;;;;8329549;28;19913;-45
2023/01/01 08:07:52;;;;;;;;;;;20.60;39.20;;;;;;8329799;28;19917;-44
2023/01/01 08:11:52;;;;;;;;;;;20.60;39.10;;;;;;8330116;28;19932;-44
2023/01/01 08:15:54;;;;;;;;;;;20.60;39.20;;;;;;8330423;28;20286;-44
2023/01/01 08:19:54;;;;;;;;;;;20.60;39.20;;;;;;8329702;28;19925;-44
2023/01/01 08:23:55;;;;;;;;;;;20.60;39.20;;;;;;8329998;28;19927;-45
2023/01/01 08:27:56;;;;;;;;;;;20.60;39.10;;;;;;8330095;28;19920;-45
2023/01/01 08:31:56;;;;;;;;;;;20.60;39.10;;;;;;8329480;28;20242;-45
2023/01/01 08:35:57;;;;;;;;;;;20.60;39.10;;;;;;8330252;28;19917;-46
2023/01/01 08:39:57;;;;;;;;;;;20.60;39.10;;;;;;8329750;28;19917;-46
2023/01/01 08:43:57;;;;;;;;;;;20.60;39.10;;;;;;8329309;28;19987;-46
2023/01/01 08:47:58;;;;;;;;;;;20.60;39.10;;;;;;8329497;28;19967;-45
2023/01/01 08:51:58;;;;;;;;;;;20.60;39.10;;;;;;8329625;28;20378;-46
2023/01/01 08:56:00;;;;;;;;;;;20.70;39.10;;;;;;8329240;28;19917;-45
2023/01/01 09:00:00;;;;;;;;;;;20.60;39.10;;;;;;8329672;28;19917;-46
2023/01/01 09:04:01;;;;;;;;;;;20.70;39.10;;;;;;8335085;28;19913;-46
2023/01/01 09:08:01;;;;;;;;;;;20.70;39.10;;;;;;8334919;28;19963;-46
2023/01/01 09:12:07;;;;;;;;;;;20.70;39.10;;;;;;8335708;28;20283;-46
2023/01/01 09:16:07;;;;;;;;;;;20.70;39.10;;;;;;8335641;28;19924;-46
2023/01/01 09:20:08;;;;;;;;;;;20.70;39.10;;;;;;8334640;28;19925;-46
2023/01/01 09:24:08;;;;;;;;;;;20.70;39.10;;;;;;8334842;28;19917;-46
2023/01/01 09:28:12;;;;;;;;;;;20.70;39.10;;;;;;8334764;28;19948;-46
2023/01/01 09:32:12;;;;;;;;;;;20.70;39.10;;;;;;8334384;28;19913;-46
2023/01/01 09:36:22;;;;;;;;;;;20.70;39.10;;;;;;8334522;28;19917;-46
2023/01/01 09:40:41;;;;;;;;;;;20.70;39.10;;;;;;8334173;28;20286;-44
2023/01/01 09:45:01;;;;;;;;;;;20.70;39.10;;;;;;8334683;28;20370;-46
2023/01/01 09:49:03;;;;;;;;;;;20.70;39.10;;;;;;8334178;28;19968;-46
2023/01/01 09:53:06;;;;;;;;;;;20.70;39.10;;;;;;8334019;28;19921;-47
2023/01/01 09:57:10;;;;;;;;;;;20.80;39.20;;;;;;8334090;28;19919;-47
2023/01/01 10:01:33;;;;;;;;;;;20.80;39.10;;;;;;8333886;28;20371;-47
2023/01/01 10:05:40;;;;;;;;;;;20.80;39.20;;;;;;8290731;28;19921;-46
2023/01/01 10:09:47;;;;;;;;;;;20.80;39.20;;;;;;8319003;28;19925;-48
2023/01/01 10:13:49;;;;;;;;;;;20.80;39.20;;;;;;8332302;28;19917;-46
2023/01/01 10:17:52;;;;;;;;;;;20.80;39.20;;;;;;8333354;28;20002;-47
2023/01/01 10:21:55;;;;;;;;;;;20.80;39.20;;;;;;8333701;28;19914;-45
2023/01/01 10:25:56;;;;;;;;;;;20.80;39.20;;;;;;8332755;28;19928;-45
2023/01/01 10:29:59;;;;;;;;;;;20.80;39.30;;;;;;8332907;28;19964;-45
2023/01/01 10:34:23;;;;;;;;;;;20.80;39.30;;;;;;8332723;28;19945;-45
2023/01/01 10:38:24;;;;;;;;;;;20.80;39.30;;;;;;8327039;28;19921;-45
2023/01/01 10:42:25;;;;;;;;;;;20.80;39.30;;;;;;8332935;28;20335;-46
2023/01/01 10:46:26;;;;;;;;;;;20.90;39.30;;;;;;8332125;28;19917;-46
2023/01/01 10:50:39;;;;;;;;;;;20.90;39.30;;;;;;8332571;28;20412;-45
2023/01/01 10:54:40;;;;;;;;;;;20.80;39.30;;;;;;8332359;28;19932;-45
2023/01/01 10:58:41;;;;;;;;;;;20.90;39.30;;;;;;8331728;28;19921;-46
2023/01/01 11:02:41;;;;;;;;;;;20.90;39.40;;;;;;8332538;28;19917;-47
2023/01/01 11:06:45;;;;;;;;;;;20.90;39.50;;;;;;8332102;28;19960;-46
2023/01/01 11:10:49;;;;;;;;;;;20.90;39.40;;;;;;8330193;28;20323;-45
2023/01/01 11:14:52;;;;;;;;;;;20.90;39.50;;;;;;8331735;28;19921;-45
2023/01/01 11:18:59;;;;;;;;;;;20.90;39.50;;;;;;8331476;28;20325;-44
2023/01/01 11:23:15;;;;;;;;;;;20.90;39.50;;;;;;8330991;28;19937;-45
2023/01/01 11:27:25;;;;;;;;;;;20.90;39.50;;;;;;8330600;28;19949;-45
2023/01/01 11:31:28;;;;;;;;;;;21.00;39.50;;;;;;8330830;28;19932;-43
2023/01/01 11:35:30;;;;;;;;;;;21.00;39.60;;;;;;8331056;28;20393;-44
2023/01/01 11:39:31;;;;;;;;;;;21.00;39.60;;;;;;8330956;28;20399;-45
2023/01/01 11:43:35;;;;;;;;;;;20.90;39.50;;;;;;8330435;28;19917;-45
2023/01/01 11:47:37;;;;;;;;;;;21.00;39.60;;;;;;8330886;28;19913;-46
2023/01/01 11:51:37;;;;;;;;;;;21.00;39.60;;;;;;8330716;28;19925;-45
2023/01/01 11:55:41;;;;;;;;;;;21.00;39.60;;;;;;8330069;28;19921;-46
2023/01/01 11:59:44;;;;;;;;;;;21.00;39.60;;;;;;8330668;28;19924;-45
2023/01/01 12:04:00;;;;;;;;;;;21.00;39.60;;;;;;8330505;28;19921;-46
2023/01/01 12:08:02;;;;;;;;;;;21.00;39.60;;;;;;8330192;28;20370;-45
2023/01/01 12:12:12;;;;;;;;;;;21.00;39.50;;;;;;8330178;28;19925;-46
2023/01/01 12:16:19;;;;;;;;;;;21.00;39.60;;;;;;8330325;28;19917;-45
2023/01/01 12:20:34;;;;;;;;;;;21.00;39.60;;;;;;8329760;28;19964;-46
2023/01/01 12:24:35;;;;;;;;;;;21.00;39.50;;;;;;8330059;28;20013;-44
2023/01/01 12:29:08;;;;;;;;;;;21.10;39.60;;;;;;8329421;28;19921;-46
2023/01/01 12:33:19;;;;;;;;;;;21.10;39.60;;;;;;8302467;28;19917;-47
2023/01/01 12:37:35;;;;;;;;;;;21.10;39.60;;;;;;8322058;28;19917;-47
2023/01/01 12:41:42;;;;;;;;;;;21.10;39.80;;;;;;8335495;28;19987;-45
2023/01/01 12:45:52;;;;;;;;;;;21.10;39.90;;;;;;8336476;28;19917;-45
2023/01/01 12:50:00;;;;;;;;;;;21.00;40.00;;;;;;8335329;28;19925;-45
2023/01/01 12:54:22;;;;;;;;;;;21.10;40.10;;;;;;8334394;28;19925;-45
2023/01/01 12:58:31;;;;;;;;;;;21.10;40.10;;;;;;8335388;28;19920;-44
2023/01/01 13:02:33;;;;;;;;;;;21.20;40.20;;;;;;8335556;28;19952;-44
2023/01/01 13:06:37;;;;;;;;;;;21.20;40.10;;;;;;8331667;28;19917;-46
2023/01/01 13:10:45;;;;;;;;;;;21.30;40.30;;;;;;8333629;28;20030;-45
2023/01/01 13:14:46;;;;;;;;;;;21.30;40.30;;;;;;8335135;28;19917;-45
2023/01/01 13:18:48;;;;;;;;;;;21.40;40.50;;;;;;8328655;28;20367;-44
2023/01/01 13:22:48;;;;;;;;;;;21.40;40.40;;;;;;8304959;28;20274;-44
2023/01/01 13:26:50;;;;;;;;;;;21.40;40.30;;;;;;8325395;28;20360;-44
2023/01/01 13:30:50;;;;;;;;;;;21.50;40.40;;;;;;8334318;28;19931;-44
2023/01/01 13:34:58;;;;;;;;;;;21.50;40.50;;;;;;8326410;28;19921;-46
2023/01/01 13:38:59;;;;;;;;;;;21.50;40.40;;;;;;8332021;28;19921;-45
2023/01/01 13:43:01;;;;;;;;;;;21.50;40.50;;;;;;8332690;28;19939;-45
2023/01/01 13:47:19;;;;;;;;;;;21.50;40.40;;;;;;8331133;28;19924;-43
2023/01/01 13:51:31;;;;;;;;;;;21.50;40.20;;;;;;8321977;28;20389;-44
2023/01/01 13:55:44;;;;;;;;;;;21.50;40.30;;;;;;8328655;28;19952;-43
2023/01/01 13:59:57;;;;;;;;;;;21.50;40.40;;;;;;8324892;28;19971;-44
2023/01/01 14:03:59;;;;;;;;;;;21.50;40.30;;;;;;8323979;28;19996;-43
2023/01/01 14:07:59;;;;;;;;;;;21.50;40.30;;;;;;8330870;28;20282;-43
2023/01/01 14:12:07;;;;;;;;;;;21.60;40.40;;;;;;8331908;28;19952;-45
2023/01/01 14:16:12;;;;;;;;;;;21.60;40.40;;;;;;8332986;28;19956;-43
2023/01/01 14:20:15;;;;;;;;;;;21.70;40.40;;;;;;8319287;28;19917;-45
2023/01/01 14:24:16;;;;;;;;;;;21.70;40.30;;;;;;8321917;28;19913;-44
2023/01/01 14:28:25;;;;;;;;;;;21.70;40.40;;;;;;8330620;28;20004;-45
2023/01/01 14:32:31;;;;;;;;;;;21.80;40.40;;;;;;8324919;28;20336;-45
2023/01/01 14:36:31;;;;;;;;;;;21.80;40.40;;;;;;8331256;28;19964;-45
2023/01/01 14:40:32;;;;;;;;;;;21.70;40.40;;;;;;8331943;28;19991;-44
2023/01/01 14:44:34;;;;;;;;;;;21.80;40.30;;;;;;8330420;28;19924;-46
2023/01/01 14:48:35;;;;;;;;;;;21.80;40.30;;;;;;8325595;28;19934;-44
2023/01/01 14:52:35;;;;;;;;;;;21.90;40.20;;;;;;8328477;28;19920;-45
2023/01/01 14:56:36;;;;;;;;;;;21.90;40.10;;;;;;8327637;28;19917;-44
2023/01/01 15:00:36;;;;;;;;;;;22.00;40.10;;;;;;8325658;28;19917;-44
2023/01/01 15:04:37;;;;;;;;;;;22.00;40.00;;;;;;8323378;28;19921;-46
2023/01/01 15:08:37;;;;;;;;;;;22.10;39.90;;;;;;8325012;28;19924;-46
2023/01/01 15:12:40;;;;;;;;;;;22.10;40.00;;;;;;8323892;28;19979;-46
2023/01/01 15:16:40;;;;;;;;;;;22.20;40.00;;;;;;8330810;28;19928;-46
2023/01/01 15:20:41;;;;;;;;;;;22.10;39.90;;;;;;8331222;28;20342;-47
2023/01/01 15:24:43;;;;;;;;;;;22.20;40.10;;;;;;8330909;28;19913;-46
2023/01/01 15:28:44;;;;;;;;;;;22.20;40.10;;;;;;8330273;28;20344;-46
2023/01/01 15:32:45;;;;;;;;;;;22.20;40.20;;;;;;8329997;28;20264;-45
2023/01/01 15:36:46;;;;;;;;;;;22.20;40.20;;;;;;8330597;28;19917;-45
2023/01/01 15:40:46;;;;;;;;;;;22.10;40.20;;;;;;8329948;28;20015;-45
2023/01/01 15:44:47;;;;;;;;;;;22.10;40.20;;;;;;8330372;28;19976;-44
2023/01/01 15:48:49;;;;;;;;;;;22.20;40.20;;;;;;8329469;28;20028;-47
2023/01/01 15:53:00;;;;;;;;;;;22.20;40.30;;;;;;8330130;28;19929;-46
2023/01/01 15:57:00;;;;;;;;;;;22.20;40.30;;;;;;8330175;28;20340;-45
2023/01/01 16:01:02;;;;;;;;;;;22.20;40.30;;;;;;8324951;28;19925;-45
2023/01/01 16:05:12;;;;;;;;;;;22.20;40.30;;;;;;8329649;28;19917;-45
2023/01/01 16:09:13;;;;;;;;;;;22.20;40.30;;;;;;8330152;28;19987;-45
2023/01/01 16:13:14;;;;;;;;;;;22.20;40.30;;;;;;8329289;28;19917;-45
2023/01/01 16:17:15;;;;;;;;;;;22.20;40.30;;;;;;8328250;28;19974;-45
2023/01/01 16:21:16;;;;;;;;;;;22.20;40.30;;;;;;8328563;28;20290;-46
2023/01/01 16:25:18;;;;;;;;;;;22.20;40.20;;;;;;8321787;28;19932;-45
2023/01/01 16:29:18;;;;;;;;;;;22.20;40.20;;;;;;8317889;28;19925;-45
2023/01/01 16:33:20;;;;;;;;;;;22.30;40.10;;;;;;8322998;28;20275;-46
2023/01/01 16:37:22;;;;;;;;;;;22.20;40.10;;;;;;8322704;28;19920;-46
2023/01/01 16:41:23;;;;;;;;;;;22.30;40.00;;;;;;8319685;28;19925;-45
2023/01/01 16:45:23;;;;;;;;;;;22.30;40.00;;;;;;8327372;28;19917;-45
2023/01/01 16:49:24;;;;;;;;;;;22.40;40.00;;;;;;8326701;28;19926;-44
2023/01/01 16:53:24;;;;;;;;;;;22.40;39.90;;;;;;8327288;28;19925;-45
2023/01/01 16:57:24;;;;;;;;;;;22.40;39.90;;;;;;8328134;28;19921;-44
2023/01/01 17:01:25;;;;;;;;;;;22.40;40.00;;;;;;8328599;28;19919;-45
2023/01/01 17:05:25;;;;;;;;;;;22.40;40.00;;;;;;8328045;28;19913;-44
2023/01/01 17:09:26;;;;;;;;;;;22.30;40.00;;;;;;8329188;28;19972;-44
2023/01/01 17:13:26;;;;;;;;;;;22.30;40.00;;;;;;8328506;28;20378;-46
2023/01/01 17:17:27;;;;;;;;;;;22.30;40.00;;;;;;8328780;28;19918;-44
2023/01/01 17:21:27;;;;;;;;;;;22.20;40.00;;;;;;8329057;28;20362;-44
2023/01/01 17:25:28;;;;;;;;;;;22.30;40.10;;;;;;8333946;28;19917;-43
2023/01/01 17:29:29;;;;;;;;;;;22.30;40.20;;;;;;8334913;28;19925;-43
2023/01/01 17:33:29;;;;;;;;;;;22.30;40.30;;;;;;8334210;28;20010;-44
2023/01/01 17:37:31;;;;;;;;;;;22.30;40.50;;;;;;8333985;28;19928;-43
2023/01/01 17:41:32;;;;;;;;;;;22.30;40.40;;;;;;8328244;28;19917;-45
2023/01/01 17:45:35;;;;;;;;;;;22.30;40.40;;;;;;8327664;28;19956;-44
2023/01/01 17:49:35;;;;;;;;;;;22.40;40.40;;;;;;8333817;28;19932;-45
2023/01/01 17:53:37;;;;;;;;;;;22.40;40.30;;;;;;8333782;28;19921;-43
2023/01/01 17:57:38;;;;;;;;;;;22.40;40.30;;;;;;8314669;28;20358;-45
2023/01/01 18:01:38;;;;;;;;;;;22.40;40.60;;;;;;8321494;28;19952;-46
2023/01/01 18:05:39;;;;;;;;;;;22.50;40.00;;;;;;8322341;28;19963;-46
2023/01/01 18:09:39;;;;;;;;;;;22.50;39.90;;;;;;8327111;28;20019;-45
2023/01/01 18:13:40;;;;;;;;;;;22.60;39.80;;;;;;8332828;28;20349;-45
2023/01/01 18:17:40;;;;;;;;;;;22.60;39.80;;;;;;8327283;28;20004;-45
2023/01/01 18:21:41;;;;;;;;;;;22.60;39.70;;;;;;8326669;28;20416;-43
2023/01/01 18:25:42;;;;;;;;;;;22.60;39.70;;;;;;8315433;28;20355;-45
2023/01/01 18:29:42;;;;;;;;;;;22.60;39.70;;;;;;8331983;28;19931;-44
2023/01/01 18:33:43;;;;;;;;;;;22.60;39.80;;;;;;8331233;28;19924;-43
2023/01/01 18:37:43;;;;;;;;;;;22.60;39.70;;;;;;8331651;28;20380;-43
2023/01/01 18:41:47;;;;;;;;;;;22.60;39.70;;;;;;8332478;28;19924;-44
2023/01/01 18:45:47;;;;;;;;;;;22.70;39.70;;;;;;8331090;28;19917;-45
2023/01/01 18:49:49;;;;;;;;;;;22.70;39.60;;;;;;8331726;28;19932;-44
2023/01/01 18:53:52;;;;;;;;;;;22.70;39.60;;;;;;8332187;28;19928;-45
2023/01/01 18:58:13;;;;;;;;;;;22.70;39.60;;;;;;8314536;28;19918;-45
2023/01/01 19:02:20;;;;;;;;;;;22.80;39.60;;;;;;8330030;28;19917;-45
2023/01/01 19:06:25;;;;;;;;;;;22.80;39.60;;;;;;8315501;28;19917;-45
2023/01/01 19:10:29;;;;;;;;;;;22.70;39.60;;;;;;8324054;28;19933;-46
2023/01/01 19:14:31;;;;;;;;;;;22.80;39.70;;;;;;8331330;28;20301;-45
2023/01/01 19:18:33;;;;;;;;;;;22.70;39.60;;;;;;8329813;28;19918;-46
2023/01/01 19:22:33;;;;;;;;;;;22.70;39.70;;;;;;8327826;28;19913;-46
2023/01/01 19:26:38;;;;;;;;;;;22.60;39.60;;;;;;8315674;28;19996;-46
2023/01/01 19:30:39;;;;;;;;;;;22.70;39.70;;;;;;8315325;28;20024;-45
2023/01/01 19:34:39;;;;;;;;;;;22.60;39.70;;;;;;8328919;28;20428;-45
2023/01/01 19:38:40;;;;;;;;;;;22.60;39.80;;;;;;8329807;28;20059;-45
2023/01/01 19:42:40;;;;;;;;;;;22.60;39.80;;;;;;8330578;28;19917;-45
2023/01/01 19:46:41;;;;;;;;;;;22.50;39.80;;;;;;8322626;28;19925;-45
2023/01/01 19:50:41;;;;;;;;;;;22.50;39.90;;;;;;8321138;28;20016;-44
2023/01/01 19:54:41;;;;;;;;;;;22.60;39.90;;;;;;8325058;28;20286;-47
2023/01/01 19:58:43;;;;;;;;;;;22.50;39.90;;;;;;8317117;28;19925;-46
2023/01/01 20:02:43;;;;;;;;;;;22.50;40.00;;;;;;8329450;28;19971;-45
2023/01/01 20:06:43;;;;;;;;;;;22.50;39.90;;;;;;8322758;28;20403;-45
2023/01/01 20:10:44;;;;;;;;;;;22.60;39.90;;;;;;8328223;28;19925;-45
2023/01/01 20:14:44;;;;;;;;;;;22.60;39.80;;;;;;8330098;28;19921;-44
2023/01/01 20:18:45;;;;;;;;;;;22.70;39.90;;;;;;8329545;28;20397;-44
2023/01/01 20:22:45;;;;;;;;;;;22.70;39.90;;;;;;8329414;28;19940;-43
2023/01/01 20:26:46;;;;;;;;;;;22.70;39.90;;;;;;8328360;28;20006;-45
2023/01/01 20:30:46;;;;;;;;;;;22.80;40.00;;;;;;8323709;28;19928;-46
2023/01/01 20:34:47;;;;;;;;;;;22.70;40.20;;;;;;8327955;28;20317;-45
2023/01/01 20:38:47;;;;;;;;;;;22.70;40.10;;;;;;8326737;28;19917;-44
2023/01/01 20:42:48;;;;;;;;;;;22.80;40.00;;;;;;8328091;28;19917;-45
2023/01/01 20:46:48;;;;;;;;;;;22.70;40.00;;;;;;8328177;28;19967;-45
2023/01/01 20:50:49;;;;;;;;;;;22.80;39.90;;;;;;8328578;28;20003;-45
2023/01/01 20:54:49;;;;;;;;;;;22.70;39.90;;;;;;8328895;28;20293;-45
2023/01/01 20:58:51;;;;;;;;;;;22.70;39.90;;;;;;8324314;28;19926;-44
2023/01/01 21:02:52;;;;;;;;;;;22.70;39.80;;;;;;8326569;28;20341;-45
2023/01/01 21:06:52;;;;;;;;;;;22.70;39.60;;;;;;8302805;28;19963;-45
2023/01/01 21:10:53;;;;;;;;;;;22.70;39.60;;;;;;8313929;28;19929;-44
2023/01/01 21:14:54;;;;;;;;;;;22.70;39.60;;;;;;8327131;28;19956;-45
2023/01/01 21:18:54;;;;;;;;;;;22.70;39.60;;;;;;8335258;28;19917;-44
2023/01/01 21:22:57;;;;;;;;;;;22.70;39.50;;;;;;8334348;28;20374;-45
2023/01/01 21:27:07;;;;;;;;;;;22.70;39.60;;;;;;8335161;28;19913;-43
2023/01/01 21:31:09;;;;;;;;;;;22.60;39.60;;;;;;8334769;28;19925;-45
2023/01/01 21:35:13;;;;;;;;;;;22.60;39.60;;;;;;8333948;28;19924;-44
2023/01/01 21:39:15;;;;;;;;;;;22.60;39.60;;;;;;8333610;28;19925;-44
2023/01/01 21:43:21;;;;;;;;;;;22.60;39.70;;;;;;8334051;28;19924;-45
2023/01/01 21:47:23;;;;;;;;;;;22.60;39.70;;;;;;8333642;28;20345;-44
2023/01/01 21:51:29;;;;;;;;;;;22.50;39.80;;;;;;8333933;28;19925;-45
2023/01/01 21:55:50;;;;;;;;;;;22.50;39.80;;;;;;8333503;28;19971;-45
2023/01/01 21:59:53;;;;;;;;;;;22.50;39.80;;;;;;8333605;28;19924;-45
2023/01/01 22:03:58;;;;;;;;;;;22.50;39.80;;;;;;8333749;28;20327;-45
2023/01/01 22:08:11;;;;;;;;;;;22.50;39.80;;;;;;8332439;28;20000;-44
2023/01/01 22:12:11;;;;;;;;;;;22.50;39.90;;;;;;8333539;28;20000;-44
2023/01/01 22:16:13;;;;;;;;;;;22.50;39.90;;;;;;8333247;28;19921;-44
2023/01/01 22:20:17;;;;;;;;;;;22.40;39.90;;;;;;8332578;28;19971;-45
2023/01/01 22:24:25;;;;;;;;;;;22.40;39.90;;;;;;8332910;28;19921;-45
2023/01/01 22:28:28;;;;;;;;;;;22.40;39.90;;;;;;8332510;28;19921;-45
2023/01/01 22:32:29;;;;;;;;;;;22.40;40.00;;;;;;8332527;28;19921;-44
2023/01/01 22:36:31;;;;;;;;;;;22.40;39.90;;;;;;8333011;28;20372;-45
2023/01/01 22:40:33;;;;;;;;;;;22.30;40.00;;;;;;8331931;28;19914;-45
2023/01/01 22:44:35;;;;;;;;;;;22.30;40.00;;;;;;8332773;28;20000;-45
2023/01/01 22:48:36;;;;;;;;;;;22.30;40.00;;;;;;8332340;28;19923;-45
2023/01/01 22:52:37;;;;;;;;;;;22.30;39.90;;;;;;8331450;28;20000;-44
2023/01/01 22:56:37;;;;;;;;;;;22.30;40.00;;;;;;8332335;28;19913;-45
2023/01/01 23:00:38;;;;;;;;;;;22.30;40.00;;;;;;8331114;28;19924;-46
2023/01/01 23:04:38;;;;;;;;;;;22.30;40.00;;;;;;8316053;28;19917;-45
2023/01/01 23:08:39;;;;;;;;;;;22.30;40.00;;;;;;8330725;28;19989;-45
2023/01/01 23:12:39;;;;;;;;;;;22.20;40.00;;;;;;8327987;28;20009;-45
2023/01/01 23:16:40;;;;;;;;;;;22.20;40.10;;;;;;8317547;28;19917;-45
2023/01/01 23:20:40;;;;;;;;;;;22.20;40.10;;;;;;8331102;28;19921;-45
2023/01/01 23:24:41;;;;;;;;;;;22.20;40.10;;;;;;8329166;28;20301;-46
2023/01/01 23:28:41;;;;;;;;;;;22.20;40.00;;;;;;8325883;28;19943;-46
2023/01/01 23:32:42;;;;;;;;;;;22.20;40.00;;;;;;8324641;28;19921;-46